Time;durP1;ratioP1;P1;durP2;ratioP2;P2;SDS_P1;SDS_P2;PMS_P1;PMS_P2;Temp;Humidity;BMP_temperature;BMP_pressure;BME280_temperature;BME280_humidity;BME280_pressure;Samples;Min_cycle;Max_cycle;Signal;HPM_P1;HPM_P2
2023/02/21 02:16:22;;;;;;;24.35;16.15;;;;;;;7.75;96.02;100361.88;5077469;28;20059;-67
2023/02/21 02:19:13;;;;;;;24.02;15.75;;;;;;;7.69;96.28;100365.88;5076442;28;20104;-67
2023/02/21 02:21:47;;;;;;;22.73;15.38;;;;;;;7.65;96.41;100366.22;5058020;28;20029;-68
2023/02/21 02:24:28;;;;;;;24.85;15.32;;;;;;;7.60;96.01;100361.22;5056938;28;20123;-68
2023/02/21 02:27:03;;;;;;;25.58;16.45;;;;;;;7.55;96.11;100352.72;5056564;28;20387;-68
2023/02/21 02:29:50;;;;;;;22.42;14.80;;;;;;;7.50;96.41;100351.34;5072760;28;20246;-68
2023/02/21 02:32:57;;;;;;;24.35;15.48;;;;;;;7.62;95.93;100359.31;5075880;28;20020;-68
2023/02/21 02:35:47;;;;;;;25.48;16.60;;;;;;;7.77;94.02;100352.78;5029551;28;20032;-68
2023/02/21 02:38:22;;;;;;;23.80;15.23;;;;;;;7.91;93.03;100346.41;5072099;28;20116;-67
2023/02/21 02:40:59;;;;;;;26.33;16.50;;;;;;;7.97;92.10;100356.63;5079098;28;20064;-68
2023/02/21 02:43:34;;;;;;;24.88;16.40;;;;;;;7.91;91.52;100346.41;5075834;28;20030;-68
2023/02/21 02:46:25;;;;;;;28.38;16.67;;;;;;;7.86;91.90;100348.56;5085387;28;20119;-68
2023/02/21 02:49:04;;;;;;;23.73;15.10;;;;;;;7.63;91.62;100328.97;5066886;28;20044;-69
2023/02/21 02:51:32;;;;;;;28.17;16.15;;;;;;;7.64;92.26;100341.34;5060525;28;20700;-69
2023/02/21 02:53:58;;;;;;;22.77;15.48;;;;;;;7.64;91.70;100337.84;5079694;28;20020;-68
2023/02/21 02:56:25;;;;;;;28.58;15.98;;;;;;;7.65;92.08;100352.88;5071945;28;20036;-68
2023/02/21 02:59:16;;;;;;;25.30;16.02;;;;;;;7.60;92.30;100357.69;5061204;28;20077;-68
2023/02/21 03:01:48;;;;;;;24.55;16.05;;;;;;;7.54;92.59;100351.00;5076162;28;20058;-68
2023/02/21 03:04:48;;;;;;;25.17;15.27;;;;;;;7.52;93.11;100346.75;5058819;28;20115;-68
2023/02/21 03:07:41;;;;;;;24.00;15.30;;;;;;;7.58;92.51;100347.13;5056644;28;20543;-68
2023/02/21 03:10:12;;;;;;;27.00;16.60;;;;;;;7.48;93.18;100337.28;5075652;28;20020;-67
2023/02/21 03:13:10;;;;;;;25.25;15.55;;;;;;;7.42;93.11;100335.94;5063127;28;20140;-67
2023/02/21 03:15:50;;;;;;;23.48;15.98;;;;;;;7.25;92.83;100306.13;5080687;28;20046;-68
2023/02/21 03:18:18;;;;;;;28.27;17.60;;;;;;;7.48;92.84;100330.13;5081952;28;20071;-68
2023/02/21 03:20:50;;;;;;;28.27;16.52;;;;;;;7.46;93.27;100321.41;5082046;28;20044;-68
2023/02/21 03:23:17;;;;;;;26.23;16.38;;;;;;;7.69;91.62;100319.66;5085280;28;20020;-68
2023/02/21 03:25:44;;;;;;;25.85;16.10;;;;;;;7.73;90.71;100311.28;5080988;28;20032;-68
2023/02/21 03:28:11;;;;;;;26.10;15.52;;;;;;;8.01;88.48;100315.38;5058838;28;20024;-67
2023/02/21 03:30:39;;;;;;;26.17;16.00;;;;;;;8.02;87.87;100309.91;5069423;28;20540;-67
2023/02/21 03:35:31;;;;;;;27.08;15.65;;;;;;;8.15;86.65;100328.50;5078350;28;20042;-67
2023/02/21 03:37:57;;;;;;;29.13;16.55;;;;;;;8.07;86.65;100326.44;5070119;28;20408;-67
2023/02/21 03:40:29;;;;;;;26.60;15.30;;;;;;;8.05;87.36;100331.03;5070065;28;20031;-67
2023/02/21 03:42:56;;;;;;;26.45;15.57;;;;;;;8.09;86.60;100329.81;5087602;28;20032;-67
2023/02/21 03:45:22;;;;;;;25.40;16.27;;;;;;;8.10;86.33;100342.19;5073455;28;20100;-68
2023/02/21 03:47:47;;;;;;;27.05;16.50;;;;;;;8.05;86.24;100322.16;5070336;28;20100;-68
2023/02/21 03:50:13;;;;;;;25.65;15.20;;;;;;;7.95;86.26;100321.16;5069569;28;20028;-68
2023/02/21 03:52:39;;;;;;;28.92;14.90;;;;;;;8.03;86.20;100327.63;5069965;28;20039;-68
2023/02/21 03:55:06;;;;;;;29.02;16.02;;;;;;;8.04;85.06;100318.66;5070472;28;20028;-68
2023/02/21 03:57:32;;;;;;;25.52;14.95;;;;;;;7.98;85.13;100319.13;5084132;28;20088;-68
2023/02/21 03:59:57;;;;;;;24.40;14.18;;;;;;;7.97;84.32;100327.25;5073503;28;20032;-68
2023/02/21 04:02:23;;;;;;;28.52;14.63;;;;;;;7.80;84.63;100301.00;5079005;28;20032;-68
2023/02/21 04:04:48;;;;;;;26.13;15.68;;;;;;;7.73;85.73;100313.97;5089965;28;20028;-68
2023/02/21 04:07:16;;;;;;;20.70;12.90;;;;;;;7.72;86.54;100322.94;5060066;28;20047;-68
2023/02/21 04:09:41;;;;;;;21.38;14.38;;;;;;;7.65;86.25;100304.84;5078784;28;20039;-68
2023/02/21 04:12:07;;;;;;;26.73;15.55;;;;;;;7.63;86.79;100312.09;5080186;28;20159;-68
2023/02/21 04:14:32;;;;;;;23.00;13.18;;;;;;;8.06;83.59;100318.53;5077853;28;20379;-69
2023/02/21 04:16:58;;;;;;;23.25;13.52;;;;;;;8.17;82.21;100323.88;5061454;28;20033;-67
2023/02/21 04:19:24;;;;;;;22.10;14.13;;;;;;;8.15;82.74;100315.13;5084563;28;20031;-68
2023/02/21 04:21:49;;;;;;;26.52;14.27;;;;;;;8.06;82.90;100313.19;5081118;28;20543;-68
2023/02/21 04:24:15;;;;;;;22.98;14.45;;;;;;;8.00;83.07;100309.16;5079596;28;20039;-68
2023/02/21 04:26:40;;;;;;;24.17;14.70;;;;;;;7.97;83.42;100292.53;5075593;28;20107;-68
2023/02/21 04:29:06;;;;;;;22.90;13.85;;;;;;;8.11;82.90;100317.22;5080039;28;20036;-68
2023/02/21 04:31:31;;;;;;;23.90;13.57;;;;;;;7.96;82.95;100304.19;5075843;28;20021;-68
2023/02/21 04:33:58;;;;;;;25.08;14.13;;;;;;;8.06;83.00;100310.53;5081614;28;20032;-69
2023/02/21 04:36:23;;;;;;;20.17;13.65;;;;;;;7.91;83.27;100304.56;5078517;28;20025;-68
2023/02/21 04:38:49;;;;;;;18.95;12.48;;;;;;;8.06;82.52;100297.19;5083598;28;20035;-68
2023/02/21 04:41:15;;;;;;;18.95;12.75;;;;;;;7.98;82.90;100297.75;5079612;28;20016;-68
2023/02/21 04:43:44;;;;;;;20.58;12.27;;;;;;;7.94;83.59;100317.66;5081834;28;20487;-68
2023/02/21 04:46:14;;;;;;;24.20;12.68;;;;;;;7.93;82.45;100296.44;5076694;28;20123;-68
2023/02/21 04:48:41;;;;;;;19.17;13.40;;;;;;;8.02;82.67;100320.59;5081129;28;20032;-68
2023/02/21 04:51:06;;;;;;;22.30;13.65;;;;;;;7.96;82.51;100320.22;5079151;28;20101;-67
2023/02/21 04:53:31;;;;;;;20.30;12.82;;;;;;;8.01;82.67;100326.91;5077582;28;20052;-67
2023/02/21 04:55:57;;;;;;;19.95;11.35;;;;;;;8.05;81.42;100325.69;5079717;28;20431;-67
2023/02/21 04:58:22;;;;;;;15.98;9.90;;;;;;;8.10;80.04;100312.00;5079788;28;20025;-68
2023/02/21 05:00:48;;;;;;;17.98;9.68;;;;;;;8.23;78.40;100304.75;5079703;28;20040;-66
2023/02/21 05:03:13;;;;;;;21.73;10.55;;;;;;;8.25;78.29;100318.81;5083869;28;20028;-67
2023/02/21 05:05:38;;;;;;;18.48;10.80;;;;;;;8.13;78.64;100317.91;5072818;28;20062;-66
2023/02/21 05:08:04;;;;;;;19.70;10.23;;;;;;;8.25;77.37;100316.16;5059945;28;20094;-67
2023/02/21 05:10:29;;;;;;;16.83;10.20;;;;;;;8.21;77.58;100312.00;5065973;28;20027;-67
2023/02/21 05:12:55;;;;;;;19.83;11.95;;;;;;;8.19;77.54;100311.28;5082025;28;20501;-68
2023/02/21 05:15:20;;;;;;;20.88;11.90;;;;;;;8.25;77.57;100310.81;5077525;28;20033;-68
2023/02/21 05:17:46;;;;;;;20.30;11.80;;;;;;;8.10;78.50;100293.28;5071574;28;20032;-67
2023/02/21 05:20:12;;;;;;;19.42;11.77;;;;;;;8.06;79.41;100308.69;5078333;28;20048;-67
2023/02/21 05:22:39;;;;;;;22.10;11.88;;;;;;;7.94;80.14;100315.00;5079756;28;20632;-67
2023/02/21 05:25:07;;;;;;;21.27;12.15;;;;;;;7.90;81.11;100312.69;5078657;28;20099;-67
2023/02/21 05:27:33;;;;;;;21.02;12.82;;;;;;;7.89;81.92;100314.50;5058305;28;20024;-67
2023/02/21 05:29:59;;;;;;;22.98;13.20;;;;;;;7.86;81.96;100330.75;5077060;28;20032;-67
2023/02/21 05:32:28;;;;;;;23.98;13.80;;;;;;;7.89;82.49;100324.31;5076820;28;20489;-68
2023/02/21 05:34:54;;;;;;;21.27;13.02;;;;;;;7.80;82.78;100333.03;5072232;28;20134;-68
2023/02/21 05:37:19;;;;;;;23.23;13.80;;;;;;;7.79;84.23;100328.66;5061399;28;20111;-68
2023/02/21 05:39:45;;;;;;;26.17;15.02;;;;;;;7.75;84.89;100321.84;5086133;28;20060;-68
2023/02/21 05:42:11;;;;;;;22.08;13.80;;;;;;;7.68;85.35;100325.97;5065602;28;20106;-68
2023/02/21 05:44:36;;;;;;;26.77;14.48;;;;;;;7.60;86.11;100328.34;5078760;28;20110;-68
2023/02/21 05:47:02;;;;;;;23.35;13.68;;;;;;;7.53;86.00;100321.78;5076588;28;20035;-66
2023/02/21 05:49:28;;;;;;;19.40;12.00;;;;;;;7.53;86.84;100329.78;5077393;28;20024;-68
2023/02/21 05:51:54;;;;;;;21.48;12.77;;;;;;;7.57;85.75;100333.91;5063152;28;20127;-67
2023/02/21 05:54:20;;;;;;;21.63;12.60;;;;;;;7.69;84.15;100333.00;5080188;28;20112;-67
2023/02/21 05:56:48;;;;;;;22.25;13.30;;;;;;;7.80;83.56;100335.72;5078638;28;20024;-67
2023/02/21 05:59:15;;;;;;;17.40;10.88;;;;;;;8.00;81.19;100345.72;5076191;28;20475;-69
2023/02/21 06:01:41;;;;;;;20.83;11.80;;;;;;;7.96;81.11;100341.59;5084479;28;20032;-68
2023/02/21 06:04:06;;;;;;;15.60;9.65;;;;;;;8.07;78.56;100328.25;5057475;28;20089;-68
2023/02/21 06:06:36;;;;;;;20.92;10.93;;;;;;;8.21;79.02;100352.06;5074672;28;20073;-68
2023/02/21 06:09:01;;;;;;;21.33;11.57;;;;;;;8.22;79.54;100349.31;5051817;28;20043;-67
2023/02/21 06:11:32;;;;;;;17.98;11.48;;;;;;;8.22;80.43;100359.16;5066672;28;20032;-68
2023/02/21 06:13:59;;;;;;;20.17;12.35;;;;;;;8.23;79.38;100336.81;5083629;28;20132;-68
2023/02/21 06:16:25;;;;;;;20.70;12.15;;;;;;;8.28;79.38;100347.97;5083163;28;20414;-68
2023/02/21 06:18:53;;;;;;;19.77;12.30;;;;;;;8.26;79.95;100361.44;5085878;28;20063;-68
2023/02/21 06:21:19;;;;;;;20.85;11.52;;;;;;;8.23;80.66;100375.06;5082153;28;20043;-68
2023/02/21 06:23:44;;;;;;;20.20;12.93;;;;;;;8.15;81.82;100357.88;5073744;28;20024;-69
2023/02/21 06:26:11;;;;;;;21.85;12.57;;;;;;;8.08;81.28;100341.47;5087298;28;20090;-68
2023/02/21 06:28:36;;;;;;;26.20;12.68;;;;;;;8.19;81.61;100354.03;5084855;28;20027;-68
2023/02/21 06:31:03;;;;;;;21.63;13.30;;;;;;;8.20;81.68;100367.25;5067457;28;20052;-68
2023/02/21 06:33:28;;;;;;;21.70;12.77;;;;;;;8.23;81.41;100356.38;5072748;28;20032;-68
2023/02/21 06:35:54;;;;;;;23.23;13.27;;;;;;;8.19;81.89;100352.19;5086811;28;20435;-68
2023/02/21 06:38:19;;;;;;;21.65;12.73;;;;;;;8.25;81.48;100351.75;5087280;28;20413;-69
2023/02/21 06:40:45;;;;;;;22.30;13.75;;;;;;;8.21;82.02;100352.91;5086920;28;20344;-68
2023/02/21 06:43:10;;;;;;;22.73;13.55;;;;;;;8.27;80.88;100346.28;5087001;28;20093;-68
2023/02/21 06:45:36;;;;;;;23.08;12.50;;;;;;;8.34;80.43;100352.84;5085517;28;20506;-68
2023/02/21 06:48:01;;;;;;;18.58;12.65;;;;;;;8.38;80.76;100343.59;5067779;28;20028;-68
2023/02/21 06:50:27;;;;;;;17.67;10.80;;;;;;;8.33;80.28;100351.16;5075351;28;20586;-68
2023/02/21 06:52:52;;;;;;;19.80;11.95;;;;;;;8.39;80.03;100351.50;5069920;28;20036;-68
2023/02/21 06:55:22;;;;;;;18.05;10.43;;;;;;;8.46;79.14;100342.06;5070252;28;20039;-69
2023/02/21 06:57:48;;;;;;;19.38;11.38;;;;;;;8.49;77.91;100325.78;5071138;28;20059;-68
2023/02/21 07:00:15;;;;;;;17.05;9.73;;;;;;;8.60;78.28;100351.63;5052673;28;20028;-69
2023/02/21 07:02:41;;;;;;;18.10;10.07;;;;;;;8.68;78.03;100347.38;5069177;28;20421;-68
2023/02/21 07:05:07;;;;;;;21.27;11.65;;;;;;;8.60;78.10;100339.13;5090952;28;20043;-68
2023/02/21 07:07:32;;;;;;;15.90;10.55;;;;;;;8.75;77.59;100351.28;5091024;28;20032;-67
2023/02/21 07:09:58;;;;;;;16.77;10.88;;;;;;;8.92;77.09;100360.63;5080730;28;20055;-68
2023/02/21 07:12:24;;;;;;;15.55;10.25;;;;;;;8.83;77.17;100335.47;5082347;28;20445;-67
2023/02/21 07:14:49;;;;;;;15.60;9.80;;;;;;;8.93;76.96;100354.28;5082867;28;20040;-67
2023/02/21 07:17:15;;;;;;;15.15;9.43;;;;;;;8.91;77.32;100345.56;5082663;28;20020;-68
2023/02/21 07:19:41;;;;;;;16.55;10.10;;;;;;;8.92;77.21;100349.91;5070299;28;20027;-66
2023/02/21 07:22:07;;;;;;;15.15;10.00;;;;;;;8.96;76.55;100332.66;5084712;28;20019;-67
2023/02/21 07:24:33;;;;;;;17.25;9.40;;;;;;;9.28;75.21;100352.28;5068762;28;20028;-69
2023/02/21 07:26:58;;;;;;;23.40;10.10;;;;;;;9.15;75.58;100339.06;5061126;28;20078;-67
2023/02/21 07:29:24;;;;;;;14.60;9.60;;;;;;;9.24;75.71;100351.69;5077746;28;20073;-67
2023/02/21 07:31:49;;;;;;;14.88;8.98;;;;;;;9.47;74.72;100357.81;5085812;28;20032;-67
2023/02/21 07:34:15;;;;;;;13.60;8.90;;;;;;;9.67;73.17;100364.22;5086140;28;20032;-68
2023/02/21 07:36:41;;;;;;;16.40;8.80;;;;;;;9.82;72.19;100342.34;5063233;28;20040;-68
2023/02/21 07:39:06;;;;;;;14.90;9.10;;;;;;;10.00;71.28;100358.69;5079310;28;20020;-68
2023/02/21 07:41:32;;;;;;;16.88;8.93;;;;;;;9.97;72.30;100367.84;5063090;28;20064;-68
2023/02/21 07:43:57;;;;;;;14.85;8.45;;;;;;;10.12;71.03;100365.75;5084998;28;20043;-68
2023/02/21 07:46:27;;;;;;;14.15;7.30;;;;;;;10.45;69.21;100369.03;5074843;28;20094;-68
2023/02/21 07:48:53;;;;;;;14.70;8.50;;;;;;;10.56;68.93;100362.75;5065582;28;20028;-68
2023/02/21 07:51:18;;;;;;;11.80;7.57;;;;;;;10.77;68.11;100361.72;5080430;28;20050;-68
2023/02/21 07:53:44;;;;;;;16.17;8.60;;;;;;;10.92;67.29;100365.75;5084233;28;20036;-68
2023/02/21 07:56:09;;;;;;;18.17;8.82;;;;;;;11.06;67.03;100367.22;5078645;28;20387;-69
2023/02/21 07:58:38;;;;;;;12.45;8.20;;;;;;;11.13;65.27;100345.03;5064129;28;20063;-67
2023/02/21 08:01:05;;;;;;;11.60;7.93;;;;;;;11.37;65.26;100361.63;5077129;28;20443;-67
2023/02/21 08:03:31;;;;;;;13.57;8.13;;;;;;;11.99;64.13;100360.44;5076381;28;20050;-67
2023/02/21 08:06:00;;;;;;;11.55;8.32;;;;;;;13.11;60.34;100362.94;5078620;28;20048;-67
2023/02/21 08:08:25;;;;;;;13.32;7.88;;;;;;;14.31;56.34;100355.22;5059882;28;20039;-68
2023/02/21 08:10:51;;;;;;;13.73;9.18;;;;;;;14.71;54.83;100357.34;5086174;28;20020;-67
2023/02/21 08:13:16;;;;;;;13.77;8.18;;;;;;;15.53;52.35;100353.00;5076967;28;20045;-68
2023/02/21 08:15:42;;;;;;;15.40;7.78;;;;;;;16.78;48.55;100355.22;5082240;28;20051;-67
2023/02/21 08:18:17;;;;;;;9.93;7.90;;;;;;;16.93;48.61;100364.31;5079531;28;20032;-67
2023/02/21 08:20:43;;;;;;;13.13;8.38;;;;;;;17.45;45.99;100355.47;5080999;28;20048;-67
2023/02/21 08:23:08;;;;;;;10.65;7.80;;;;;;;17.06;46.62;100343.75;5057594;28;20056;-68
2023/02/21 08:25:34;;;;;;;9.93;6.57;;;;;;;16.41;48.14;100363.06;5068331;28;20036;-67
2023/02/21 08:27:59;;;;;;;10.80;7.22;;;;;;;15.97;48.86;100358.97;5060394;28;20035;-67
2023/02/21 08:30:25;;;;;;;10.27;6.07;;;;;;;15.58;49.15;100367.69;5081509;28;20563;-68
2023/02/21 08:32:50;;;;;;;9.85;5.35;;;;;;;14.98;50.28;100360.72;5082613;28;20023;-68
2023/02/21 08:35:17;;;;;;;7.60;4.13;;;;;;;14.55;51.61;100363.50;5082214;28;20463;-68
2023/02/21 08:37:47;;;;;;;8.18;4.68;;;;;;;14.33;51.81;100363.16;5063559;28;20028;-68
2023/02/21 08:40:13;;;;;;;10.25;5.35;;;;;;;14.08;52.24;100363.94;5076265;28;20039;-68
2023/02/21 08:42:40;;;;;;;7.00;4.45;;;;;;;13.85;53.33;100368.13;5089433;28;20065;-68
2023/02/21 08:45:06;;;;;;;7.88;4.68;;;;;;;13.67;53.71;100355.50;5085799;28;20524;-68
2023/02/21 08:47:35;;;;;;;10.75;5.65;;;;;;;13.53;54.49;100363.25;5073309;28;20647;-69
2023/02/21 08:50:00;;;;;;;9.55;5.22;;;;;;;13.41;55.44;100370.72;5087470;28;20069;-69
2023/02/21 08:52:26;;;;;;;7.38;3.80;;;;;;;13.39;54.69;100353.81;5075892;28;20036;-67
2023/02/21 08:54:51;;;;;;;8.18;4.50;;;;;;;13.40;54.37;100358.25;5074418;28;20101;-67
2023/02/21 08:57:17;;;;;;;8.38;4.30;;;;;;;13.38;55.31;100365.63;5071880;28;20024;-68
2023/02/21 08:59:44;;;;;;;7.88;4.30;;;;;;;13.23;54.80;100364.41;5057596;28;20039;-67
2023/02/21 09:02:24;;;;;;;9.73;4.30;;;;;;;13.40;54.36;100376.25;5071271;28;20028;-67
2023/02/21 09:04:50;;;;;;;6.32;4.50;;;;;;;13.28;54.84;100347.81;5061667;28;20455;-68
2023/02/21 09:07:18;;;;;;;8.75;4.70;;;;;;;13.27;55.44;100362.28;5087398;28;20162;-68
2023/02/21 09:09:44;;;;;;;8.48;4.00;;;;;;;13.34;55.70;100357.97;5074424;28;20028;-68
2023/02/21 09:12:11;;;;;;;8.63;4.57;;;;;;;13.41;56.29;100353.69;5074754;28;20039;-69
2023/02/21 09:14:37;;;;;;;6.00;4.18;;;;;;;13.41;55.29;100367.16;5081629;28;20043;-68
2023/02/21 09:17:05;;;;;;;8.15;4.18;;;;;;;13.48;55.50;100352.09;5061863;28;20117;-68
2023/02/21 09:19:31;;;;;;;4.68;3.55;;;;;;;13.59;54.65;100354.56;5080024;28;20031;-68
2023/02/21 09:21:56;;;;;;;6.10;3.72;;;;;;;13.67;54.65;100355.50;5069236;28;20446;-68
2023/02/21 09:24:24;;;;;;;5.78;3.58;;;;;;;13.71;54.29;100361.44;5073948;28;20031;-68
2023/02/21 09:26:58;;;;;;;5.75;3.35;;;;;;;13.82;53.97;100369.28;5067176;28;20032;-68
2023/02/21 09:29:25;;;;;;;5.78;3.30;;;;;;;13.85;53.72;100350.09;5087171;28;20040;-67
2023/02/21 09:31:51;;;;;;;9.65;3.75;;;;;;;13.83;54.08;100338.59;5067985;28;20119;-67
2023/02/21 09:34:17;;;;;;;7.90;3.80;;;;;;;14.02;53.91;100354.63;5068884;28;20173;-68
2023/02/21 09:36:42;;;;;;;6.05;3.75;;;;;;;14.12;53.59;100341.91;5069852;28;20713;-68
2023/02/21 09:39:08;;;;;;;6.55;3.55;;;;;;;14.32;53.19;100342.59;5057198;28;20475;-68
2023/02/21 09:41:35;;;;;;;6.35;3.20;;;;;;;14.49;51.93;100357.88;5053885;28;20040;-67
2023/02/21 09:44:03;;;;;;;5.93;3.60;;;;;;;14.58;52.32;100352.41;5086253;28;20035;-68
2023/02/21 09:46:44;;;;;;;5.53;3.00;;;;;;;14.94;51.32;100339.59;5074168;28;20060;-67
2023/02/21 09:49:20;;;;;;;4.28;2.85;;;;;;;16.25;47.66;100357.66;5072792;28;20037;-68
2023/02/21 09:51:48;;;;;;;10.43;4.03;;;;;;;18.16;44.28;100343.47;5054115;28;20559;-68
2023/02/21 09:54:23;;;;;;;6.65;3.42;;;;;;;19.85;40.57;100343.19;5032446;28;20035;-68
2023/02/21 09:56:48;;;;;;;6.70;3.22;;;;;;;21.08;38.09;100323.47;5078038;28;20025;-68
2023/02/21 09:59:15;;;;;;;6.78;3.33;;;;;;;22.35;35.26;100324.28;5059338;28;20047;-68
2023/02/21 10:01:55;;;;;;;4.22;3.25;;;;;;;22.93;34.57;100330.75;5085802;28;20574;-68
2023/02/21 10:04:24;;;;;;;9.35;3.60;;;;;;;23.32;33.52;100317.00;5072402;28;20679;-68
2023/02/21 10:07:05;;;;;;;5.32;3.03;;;;;;;23.37;33.21;100309.78;5070199;28;20115;-69
2023/02/21 10:09:45;;;;;;;5.18;3.03;;;;;;;23.95;32.47;100318.78;5081767;28;20027;-68
2023/02/21 10:12:55;;;;;;;7.55;3.50;;;;;;;24.03;32.05;100322.13;5073594;28;20036;-68
2023/02/21 10:15:37;;;;;;;7.53;4.32;;;;;;;24.18;32.29;100325.34;5065573;28;20092;-69
2023/02/21 10:18:12;;;;;;;5.63;2.78;;;;;;;25.29;30.92;100306.97;5067539;28;20028;-69
2023/02/21 10:20:43;;;;;;;3.35;2.60;;;;;;;25.74;29.96;100308.31;5056917;28;20039;-69
2023/02/21 10:23:45;;;;;;;3.03;2.65;;;;;;;26.19;29.46;100293.91;5070035;28;20059;-68
2023/02/21 10:26:25;;;;;;;5.10;2.85;;;;;;;25.78;29.48;100307.63;5084142;28;20027;-69
2023/02/21 10:28:51;;;;;;;9.02;3.00;;;;;;;24.61;30.95;100325.44;5076498;28;20118;-69
2023/02/21 10:31:38;;;;;;;5.32;2.70;;;;;;;24.06;31.70;100302.47;5068779;28;20050;-69
2023/02/21 10:34:19;;;;;;;5.55;2.50;;;;;;;23.61;32.87;100305.47;5063198;28;20386;-70
2023/02/21 10:36:47;;;;;;;6.50;2.78;;;;;;;23.27;33.60;100325.84;5087196;28;20035;-69
2023/02/21 10:39:17;;;;;;;3.90;2.80;;;;;;;22.46;34.44;100312.69;5069003;28;20430;-69
2023/02/21 10:41:42;;;;;;;7.47;2.88;;;;;;;21.32;36.33;100320.25;5071136;28;20040;-68
2023/02/21 10:44:14;;;;;;;7.40;3.17;;;;;;;20.13;38.88;100341.44;5051524;28;20070;-68
2023/02/21 10:46:50;;;;;;;7.03;3.58;;;;;;;19.85;39.37;100325.00;5049920;28;20032;-69
2023/02/21 10:49:37;;;;;;;6.22;3.13;;;;;;;19.14;40.43;100327.66;5079445;28;20024;-66
2023/02/21 10:52:16;;;;;;;5.50;2.90;;;;;;;18.37;42.43;100325.47;5078820;28;20089;-69
2023/02/21 10:54:58;;;;;;;5.43;3.65;;;;;;;18.12;43.43;100321.25;5056662;28;20032;-70
2023/02/21 10:57:24;;;;;;;5.25;3.35;;;;;;;17.72;44.46;100310.72;5057856;28;20418;-69
2023/02/21 10:59:49;;;;;;;5.50;3.40;;;;;;;17.43;45.43;100302.44;5066920;28;20481;-68
2023/02/21 11:02:36;;;;;;;6.32;3.53;;;;;;;17.24;46.05;100306.44;5079979;28;20108;-68
2023/02/21 11:05:18;;;;;;;7.35;3.53;;;;;;;17.06;46.62;100302.28;5074628;28;20646;-67
2023/02/21 11:08:05;;;;;;;3.85;2.42;;;;;;;16.91;46.82;100295.91;5076442;28;20093;-69
2023/02/21 11:10:41;;;;;;;6.13;2.67;;;;;;;16.60;47.65;100295.03;5079053;28;20024;-69
2023/02/21 11:13:16;;;;;;;5.40;2.47;;;;;;;16.48;47.67;100296.41;5059402;28;20044;-69
2023/02/21 11:15:45;;;;;;;6.32;2.35;;;;;;;16.26;48.35;100289.81;5076850;28;20028;-68
2023/02/21 11:18:24;;;;;;;5.47;2.30;;;;;;;16.07;49.46;100302.84;5075855;28;20055;-69
2023/02/21 11:20:51;;;;;;;5.95;2.03;;;;;;;16.05;49.48;100267.00;5076778;28;20344;-68
2023/02/21 11:23:29;;;;;;;3.05;2.00;;;;;;;16.04;49.58;100281.53;5080747;28;20426;-68
2023/02/21 11:26:10;;;;;;;2.95;2.00;;;;;;;15.86;50.36;100284.41;5083261;28;20026;-68
2023/02/21 11:28:44;;;;;;;5.00;1.95;;;;;;;15.70;50.63;100274.44;5057271;28;20081;-67
2023/02/21 11:31:20;;;;;;;2.53;1.70;;;;;;;15.74;50.44;100286.59;5074261;28;20035;-68
2023/02/21 11:34:00;;;;;;;5.60;2.15;;;;;;;15.79;50.72;100275.28;5075571;28;20059;-68
2023/02/21 11:36:29;;;;;;;4.78;1.73;;;;;;;15.74;50.94;100274.97;5079820;28;20020;-69
2023/02/21 11:39:33;;;;;;;7.95;2.15;;;;;;;15.79;51.18;100278.84;5079703;28;20051;-68
2023/02/21 11:42:02;;;;;;;5.00;1.90;;;;;;;15.83;51.05;100272.09;5059024;28;20064;-69
2023/02/21 11:44:33;;;;;;;4.22;2.08;;;;;;;15.76;51.22;100276.47;5083458;28;20047;-68
2023/02/21 11:47:12;;;;;;;2.05;1.63;;;;;;;15.79;51.56;100275.28;5082513;28;20043;-69
2023/02/21 11:49:40;;;;;;;3.40;1.90;;;;;;;15.85;51.36;100275.47;5084536;28;20032;-69
2023/02/21 11:52:11;;;;;;;5.85;2.50;;;;;;;15.80;51.87;100263.44;5064497;28;20387;-68
2023/02/21 11:54:38;;;;;;;4.60;2.20;;;;;;;15.82;51.64;100248.75;5036699;28;20090;-69
2023/02/21 11:57:04;;;;;;;3.50;2.15;;;;;;;15.85;51.86;100264.66;5075442;28;20032;-70
2023/02/21 11:59:50;;;;;;;3.58;2.22;;;;;;;15.80;52.14;100261.59;5069892;28;20036;-70
2023/02/21 12:02:30;;;;;;;4.70;2.38;;;;;;;15.87;52.23;100262.59;5083676;28;20030;-70
2023/02/21 12:05:29;;;;;;;4.40;2.40;;;;;;;15.92;52.37;100250.47;5056157;28;20484;-69
2023/02/21 12:08:22;;;;;;;3.92;2.60;;;;;;;15.93;52.41;100261.09;5075424;28;20037;-67
2023/02/21 12:11:18;;;;;;;4.00;1.80;;;;;;;15.99;51.55;100267.69;5072860;28;20521;-68
2023/02/21 12:14:10;;;;;;;2.67;2.20;;;;;;;15.94;52.43;100258.19;5085632;28;21115;-69
2023/02/21 12:17:03;;;;;;;3.15;2.30;;;;;;;15.89;52.68;100257.88;5085601;28;20032;-69
2023/02/21 12:19:44;;;;;;;5.43;1.70;;;;;;;16.00;51.76;100245.88;5077440;28;20020;-69
2023/02/21 12:22:41;;;;;;;4.40;2.63;;;;;;;16.05;51.75;100248.91;5089641;28;20076;-68
2023/02/21 12:25:32;;;;;;;3.25;2.10;;;;;;;16.01;52.31;100249.41;5074772;28;20074;-69
2023/02/21 12:28:10;;;;;;;5.38;2.53;;;;;;;15.96;51.97;100241.81;5086359;28;20020;-68
2023/02/21 12:31:13;;;;;;;5.15;2.25;;;;;;;16.08;52.23;100253.13;5063174;28;20535;-69
2023/02/21 12:34:15;;;;;;;4.90;2.25;;;;;;;16.29;51.18;100245.31;5078991;28;20380;-69
2023/02/21 12:36:58;;;;;;;4.03;2.22;;;;;;;16.28;51.11;100249.03;5069440;28;20036;-69
2023/02/21 12:40:02;;;;;;;6.85;2.83;;;;;;;16.28;50.81;100254.47;5075532;28;20035;-69
2023/02/21 12:43:13;;;;;;;3.50;2.15;;;;;;;16.29;51.27;100243.47;5079519;28;20035;-69
2023/02/21 12:46:13;;;;;;;3.22;2.17;;;;;;;16.35;51.07;100237.31;5051666;28;20114;-70
2023/02/21 12:48:44;;;;;;;5.63;2.28;;;;;;;16.32;51.17;100235.00;5060453;28;20475;-69
2023/02/21 12:51:17;;;;;;;5.10;2.38;;;;;;;16.25;51.58;100227.72;5074757;28;20135;-70
2023/02/21 12:53:50;;;;;;;3.85;2.10;;;;;;;16.26;51.35;100221.28;5074452;28;20028;-69
2023/02/21 12:56:36;;;;;;;7.05;2.90;;;;;;;16.39;51.57;100236.00;5081255;28;20063;-69
2023/02/21 12:59:26;;;;;;;6.25;2.88;;;;;;;16.44;50.66;100227.38;5031312;28;20077;-68
2023/02/21 13:02:00;;;;;;;5.47;2.20;;;;;;;16.32;51.70;100234.13;5087076;28;20024;-67
2023/02/21 13:04:45;;;;;;;6.20;2.50;;;;;;;16.23;51.90;100219.78;5085763;28;20107;-68
2023/02/21 13:07:18;;;;;;;5.47;2.65;;;;;;;16.38;51.61;100219.91;5080841;28;20032;-68
2023/02/21 13:10:06;;;;;;;3.70;2.50;;;;;;;16.29;51.92;100226.38;5065556;28;20040;-68
2023/02/21 13:12:46;;;;;;;3.85;2.78;;;;;;;16.10;52.69;100224.03;5077916;28;20035;-69
2023/02/21 13:15:20;;;;;;;4.18;3.33;;;;;;;16.24;52.19;100223.31;5074069;28;20068;-68
2023/02/21 13:18:08;;;;;;;7.82;3.03;;;;;;;16.30;51.85;100228.91;5063574;28;20528;-68
2023/02/21 13:20:41;;;;;;;6.95;3.03;;;;;;;16.22;52.39;100219.97;5073061;28;20478;-69
2023/02/21 13:23:44;;;;;;;7.28;3.17;;;;;;;16.25;52.08;100216.91;5075595;28;20527;-69
2023/02/21 13:26:31;;;;;;;4.97;3.58;;;;;;;16.31;51.74;100227.03;5077731;28;20109;-69
2023/02/21 13:28:57;;;;;;;7.93;3.80;;;;;;;16.28;52.30;100225.50;5083384;28;20060;-69
2023/02/21 13:31:26;;;;;;;5.15;2.78;;;;;;;16.23;52.05;100224.34;5084035;28;20482;-69
2023/02/21 13:33:55;;;;;;;4.85;2.80;;;;;;;16.24;51.80;100220.59;5076185;28;20085;-68
2023/02/21 13:36:23;;;;;;;7.03;3.25;;;;;;;16.23;51.91;100214.38;5075417;28;20027;-68
2023/02/21 13:39:01;;;;;;;6.43;2.90;;;;;;;16.24;52.08;100220.59;5076884;28;20040;-68
2023/02/21 13:41:32;;;;;;;5.38;2.33;;;;;;;16.07;52.33;100210.84;5074347;28;20109;-68
2023/02/21 13:43:59;;;;;;;5.57;3.17;;;;;;;16.08;52.15;100205.25;5068234;28;20032;-69
2023/02/21 13:46:25;;;;;;;6.75;3.10;;;;;;;16.16;52.53;100224.22;5072729;28;20396;-67
2023/02/21 13:49:28;;;;;;;8.02;3.22;;;;;;;16.12;52.62;100216.59;5061145;28;20040;-68
2023/02/21 13:52:18;;;;;;;4.90;2.92;;;;;;;16.02;52.32;100211.38;5082890;28;20024;-67
2023/02/21 13:55:14;;;;;;;4.25;2.80;;;;;;;15.93;52.60;100213.25;5080596;28;20641;-67
2023/02/21 13:57:48;;;;;;;7.38;3.40;;;;;;;16.12;52.11;100219.31;5057596;28;20120;-68
2023/02/21 14:00:25;;;;;;;4.70;3.00;;;;;;;16.05;52.23;100212.91;5074473;28;20036;-68
2023/02/21 14:03:07;;;;;;;6.50;3.20;;;;;;;16.13;51.54;100219.13;5079640;28;20085;-69